createdAt,value
2022-10-20T00:00:19.113Z,23.33
2022-10-20T00:01:51.095Z,21.20
2022-10-20T00:03:23.702Z,22.90
2022-10-20T00:04:55.883Z,20.92
2022-10-20T00:06:30.320Z,24.65
2022-10-20T00:08:02.564Z,25.70
2022-10-20T00:09:34.584Z,22.10
2022-10-20T00:11:07.872Z,22.15
2022-10-20T00:12:39.966Z,21.15
2022-10-20T00:14:12.019Z,26.20
2022-10-20T00:15:50.143Z,24.00
2022-10-20T00:17:22.113Z,19.52
2022-10-20T00:18:55.688Z,25.20
2022-10-20T00:20:27.755Z,23.08
2022-10-20T00:22:00.468Z,21.80
2022-10-20T00:23:32.392Z,24.30
2022-10-20T00:25:04.660Z,25.67
2022-10-20T00:26:36.673Z,22.50
2022-10-20T00:28:08.716Z,23.45
2022-10-20T00:29:40.734Z,20.48
2022-10-20T00:31:13.448Z,22.60
2022-10-20T00:32:48.026Z,22.95
2022-10-20T00:34:20.063Z,22.77
2022-10-20T00:35:52.075Z,23.20
2022-10-20T00:37:24.345Z,20.38
2022-10-20T00:39:00.977Z,22.67
2022-10-20T00:40:33.062Z,22.10
2022-10-20T00:42:06.300Z,22.38
2022-10-20T00:43:49.366Z,22.77
2022-10-20T00:45:22.712Z,22.17
2022-10-20T00:48:28.740Z,21.65
2022-10-20T00:50:22.813Z,22.95
2022-10-20T00:51:55.265Z,20.90
2022-10-20T00:53:29.248Z,19.15
2022-10-20T00:55:02.095Z,20.65
2022-10-20T00:56:34.419Z,22.00
2022-10-20T00:58:06.652Z,20.80
2022-10-20T00:59:39.370Z,21.13
2022-10-20T01:01:12.748Z,21.13
2022-10-20T01:04:17.221Z,23.48
2022-10-20T01:05:51.934Z,20.88
2022-10-20T01:07:24.023Z,21.83
2022-10-20T01:08:56.135Z,21.35
2022-10-20T01:10:33.058Z,21.92
2022-10-20T01:12:22.123Z,22.77
2022-10-20T01:13:59.990Z,21.83
2022-10-20T01:15:55.542Z,19.48
2022-10-20T01:17:37.168Z,19.63
2022-10-20T01:19:24.823Z,20.95
2022-10-20T01:21:41.724Z,20.73
2022-10-20T01:23:50.870Z,21.45
2022-10-20T01:25:41.331Z,19.77
2022-10-20T01:27:17.376Z,22.98
2022-10-20T01:29:10.168Z,19.20
2022-10-20T01:30:46.738Z,21.25
2022-10-20T01:32:39.213Z,21.13
2022-10-20T01:34:39.606Z,19.70
2022-10-20T01:36:19.286Z,22.92
2022-10-20T01:38:00.805Z,26.05
2022-10-20T01:39:46.658Z,21.27
2022-10-20T01:41:23.701Z,19.23
2022-10-20T01:42:59.169Z,19.42
2022-10-20T01:44:32.387Z,22.10
2022-10-20T01:46:05.063Z,22.30
2022-10-20T01:47:38.032Z,21.58
2022-10-20T01:49:10.569Z,21.92
2022-10-20T01:50:42.914Z,22.90
2022-10-20T01:52:15.003Z,22.55
2022-10-20T01:53:46.980Z,24.05
2022-10-20T01:55:19.036Z,25.42
2022-10-20T01:57:27.912Z,23.90
2022-10-20T01:58:59.903Z,24.20
2022-10-20T02:00:32.396Z,21.10
2022-10-20T02:02:31.814Z,21.27
2022-10-20T02:04:05.673Z,21.52
2022-10-20T02:06:02.022Z,22.02
2022-10-20T02:07:34.366Z,21.20
2022-10-20T02:09:09.727Z,22.33
2022-10-20T02:10:49.215Z,20.75
2022-10-20T02:12:28.325Z,22.40
2022-10-20T02:14:00.364Z,21.17
2022-10-20T02:15:33.226Z,22.40
2022-10-20T02:17:08.432Z,20.17
2022-10-20T02:18:45.864Z,20.23
2022-10-20T02:20:17.963Z,20.60
2022-10-20T02:21:52.556Z,19.67
2022-10-20T02:23:24.677Z,20.88
2022-10-20T02:24:56.645Z,22.52
2022-10-20T02:26:31.009Z,22.45
2022-10-20T02:28:04.035Z,19.42
2022-10-20T02:31:09.955Z,21.60
2022-10-20T02:32:44.390Z,20.42
2022-10-20T02:34:16.617Z,19.10
2022-10-20T02:35:56.987Z,17.85
2022-10-20T02:37:29.003Z,19.55
2022-10-20T02:39:01.015Z,17.98
2022-10-20T02:40:33.144Z,17.67
2022-10-20T02:42:05.559Z,18.15
2022-10-20T02:43:37.624Z,16.80
2022-10-20T02:45:12.804Z,17.33
2022-10-20T02:46:44.833Z,18.23
2022-10-20T02:48:16.764Z,17.77
2022-10-20T02:49:49.284Z,18.17
2022-10-20T02:51:21.384Z,17.77
2022-10-20T02:52:53.500Z,18.33
2022-10-20T02:54:27.785Z,17.17
2022-10-20T02:56:00.130Z,17.88
2022-10-20T02:57:32.153Z,19.42
2022-10-20T02:59:04.144Z,17.10
2022-10-20T03:00:36.138Z,18.67
2022-10-20T03:02:08.106Z,17.67
2022-10-20T03:03:40.256Z,17.23
2022-10-20T03:05:12.342Z,17.52
2022-10-20T03:06:44.431Z,17.23
2022-10-20T03:08:16.526Z,18.50
2022-10-20T03:09:49.253Z,17.52
2022-10-20T03:11:21.264Z,17.08
2022-10-20T03:12:55.931Z,18.60
2022-10-20T03:14:28.063Z,15.85
2022-10-20T03:16:01.803Z,16.00
2022-10-20T03:17:34.129Z,15.95
2022-10-20T03:19:09.107Z,17.52
2022-10-20T03:20:44.845Z,17.58
2022-10-20T03:23:49.169Z,19.38
2022-10-20T03:25:21.157Z,17.33
2022-10-20T03:26:53.301Z,15.25
2022-10-20T03:29:58.145Z,17.33
2022-10-20T03:31:30.570Z,16.77
2022-10-20T03:33:02.580Z,16.60
2022-10-20T03:34:34.581Z,14.32
2022-10-20T03:36:06.738Z,16.15
2022-10-20T03:37:38.769Z,15.73
2022-10-20T03:39:10.773Z,17.90
2022-10-20T03:40:42.755Z,14.60
2022-10-20T03:42:15.298Z,16.60
2022-10-20T03:43:47.343Z,16.42
2022-10-20T03:45:19.365Z,16.55
2022-10-20T03:46:51.335Z,14.02
2022-10-20T03:48:23.308Z,18.73
2022-10-20T03:49:55.343Z,17.20
2022-10-20T03:51:27.410Z,15.18
2022-10-20T03:52:59.649Z,18.88
2022-10-20T03:54:32.020Z,16.88
2022-10-20T03:56:08.387Z,16.67
2022-10-20T03:57:43.471Z,14.95
2022-10-20T03:59:15.470Z,17.33
2022-10-20T04:00:48.257Z,15.80
2022-10-20T04:02:36.309Z,15.77
2022-10-20T04:04:11.876Z,14.68
2022-10-20T04:05:43.922Z,17.35
2022-10-20T04:07:15.977Z,17.25
2022-10-20T04:08:47.998Z,17.95
2022-10-20T04:10:20.102Z,16.73
2022-10-20T04:11:52.103Z,16.70
2022-10-20T04:13:24.153Z,16.73
2022-10-20T04:14:56.167Z,16.25
2022-10-20T04:16:28.160Z,16.67
2022-10-20T04:18:00.188Z,18.20
2022-10-20T04:19:32.189Z,17.70
2022-10-20T04:21:04.345Z,16.85
2022-10-20T04:22:36.631Z,16.30
2022-10-20T04:24:08.909Z,15.73
2022-10-20T04:25:45.927Z,16.98
2022-10-20T04:27:17.929Z,16.65
2022-10-20T04:28:50.036Z,16.95
2022-10-20T04:30:22.051Z,14.68
2022-10-20T04:31:56.520Z,16.83
2022-10-20T04:33:28.525Z,16.85
2022-10-20T04:35:00.561Z,15.93
2022-10-20T04:36:32.655Z,17.13
2022-10-20T04:38:05.089Z,16.63
2022-10-20T04:39:37.190Z,14.93
2022-10-20T04:41:10.782Z,18.10
2022-10-20T04:42:42.798Z,16.95
2022-10-20T04:44:15.720Z,17.75
2022-10-20T04:45:47.728Z,17.25
2022-10-20T04:47:22.851Z,16.95
2022-10-20T04:48:54.916Z,16.45
2022-10-20T04:50:27.109Z,17.20
2022-10-20T04:52:01.153Z,15.52
2022-10-20T04:53:34.693Z,17.88
2022-10-20T04:55:07.073Z,17.13
2022-10-20T04:56:39.187Z,16.77
2022-10-20T04:59:44.378Z,18.67
2022-10-20T05:01:16.806Z,20.95
2022-10-20T05:02:48.822Z,20.02
2022-10-20T05:04:23.474Z,19.00
2022-10-20T05:05:55.537Z,18.38
2022-10-20T05:07:30.791Z,15.43
2022-10-20T05:09:05.537Z,17.55
2022-10-20T05:10:37.601Z,18.50
2022-10-20T05:12:09.795Z,17.13
2022-10-20T05:13:42.721Z,16.05
2022-10-20T05:15:14.905Z,15.35
2022-10-20T05:16:46.948Z,17.35
2022-10-20T05:18:19.045Z,14.80
2022-10-20T05:19:51.132Z,16.42
2022-10-20T05:21:26.632Z,17.73
2022-10-20T05:22:58.727Z,17.63
2022-10-20T05:24:30.946Z,15.85
2022-10-20T05:26:04.498Z,18.50
2022-10-20T05:27:36.505Z,16.27
2022-10-20T05:29:10.626Z,17.55
2022-10-20T05:32:34.810Z,15.23
2022-10-20T05:34:10.404Z,15.20
2022-10-20T05:35:42.394Z,20.38
2022-10-20T05:37:14.858Z,16.50
2022-10-20T05:38:48.214Z,16.65
2022-10-20T05:40:20.236Z,13.45
2022-10-20T05:41:52.239Z,15.75
2022-10-20T05:43:24.298Z,13.40
2022-10-20T05:44:56.636Z,16.30
2022-10-20T05:46:30.870Z,13.98
2022-10-20T05:48:02.925Z,15.55
2022-10-20T05:49:34.996Z,14.60
2022-10-20T05:51:27.746Z,15.00
2022-10-20T05:53:00.365Z,15.32
2022-10-20T05:54:32.510Z,16.35
2022-10-20T05:56:06.285Z,13.93
2022-10-20T05:57:38.426Z,14.43
2022-10-20T05:59:11.302Z,14.95
2022-10-20T06:00:52.431Z,13.40
2022-10-20T06:02:24.555Z,15.73
2022-10-20T06:04:00.686Z,16.45
2022-10-20T06:05:32.751Z,13.98
2022-10-20T06:07:10.303Z,14.48
2022-10-20T06:08:42.639Z,13.18
2022-10-20T06:10:14.760Z,13.55
2022-10-20T06:11:50.105Z,20.20
2022-10-20T06:13:22.202Z,14.13
2022-10-20T06:14:54.316Z,15.60
2022-10-20T06:16:27.475Z,15.55
2022-10-20T06:17:59.491Z,17.50
2022-10-20T06:19:31.749Z,21.88
2022-10-20T06:21:06.908Z,17.38
2022-10-20T06:22:39.205Z,19.92
2022-10-20T06:24:12.287Z,17.17
2022-10-20T06:25:44.303Z,16.92
2022-10-20T06:29:04.447Z,14.05
2022-10-20T06:30:36.897Z,16.50
2022-10-20T06:32:09.130Z,14.15
2022-10-20T06:33:41.632Z,20.60
2022-10-20T06:35:13.970Z,14.07
2022-10-20T06:36:46.626Z,14.40
2022-10-20T06:38:19.312Z,18.17
2022-10-20T06:39:51.577Z,15.77
2022-10-20T06:41:24.272Z,12.35
2022-10-20T06:42:56.822Z,13.15
2022-10-20T06:44:29.225Z,12.75
2022-10-20T06:46:03.622Z,12.65
2022-10-20T06:47:36.119Z,12.23
2022-10-20T06:49:08.697Z,11.60
2022-10-20T06:50:40.633Z,11.20
2022-10-20T06:52:12.756Z,13.77
2022-10-20T06:53:46.704Z,11.10
2022-10-20T06:55:19.455Z,11.95
2022-10-20T06:56:52.233Z,14.40
2022-10-20T06:58:24.453Z,13.02
2022-10-20T06:59:56.593Z,13.30
2022-10-20T07:01:31.585Z,11.07
2022-10-20T07:04:40.966Z,16.55
2022-10-20T07:06:21.347Z,12.10
2022-10-20T07:07:53.946Z,10.48
2022-10-20T07:09:26.150Z,14.57
2022-10-20T07:11:18.410Z,12.75
2022-10-20T07:12:50.552Z,11.90
2022-10-20T07:14:22.846Z,14.00
2022-10-20T07:15:55.902Z,11.48
2022-10-20T07:17:28.336Z,10.80
2022-10-20T07:19:01.482Z,13.10
2022-10-20T07:20:34.298Z,10.88
2022-10-20T07:22:06.498Z,11.63
2022-10-20T07:23:38.790Z,10.70
2022-10-20T07:25:11.086Z,12.30
2022-10-20T07:26:43.536Z,12.40
2022-10-20T07:28:15.685Z,9.37
2022-10-20T07:29:48.173Z,11.60
2022-10-20T07:31:23.512Z,11.43
2022-10-20T07:32:55.790Z,12.27
2022-10-20T07:34:28.287Z,11.32
2022-10-20T07:36:00.649Z,10.55
2022-10-20T07:37:32.919Z,10.52
2022-10-20T07:39:07.193Z,12.57
2022-10-20T07:40:39.475Z,10.68
2022-10-20T07:42:11.814Z,10.43
2022-10-20T07:43:44.361Z,9.05
2022-10-20T07:45:16.714Z,10.07
2022-10-20T07:46:49.214Z,10.90
2022-10-20T07:48:21.615Z,12.23
2022-10-20T07:49:53.775Z,12.18
2022-10-20T07:51:29.310Z,10.80
2022-10-20T07:53:01.734Z,10.95
2022-10-20T07:54:34.378Z,9.73
2022-10-20T07:56:07.178Z,12.13
2022-10-20T07:57:39.272Z,12.05
2022-10-20T07:59:12.049Z,12.55
2022-10-20T08:00:44.174Z,9.38
2022-10-20T08:02:16.745Z,9.73
2022-10-20T08:03:48.902Z,9.80
2022-10-20T08:05:21.047Z,9.43
2022-10-20T08:06:53.300Z,10.30
2022-10-20T08:08:25.956Z,11.55
2022-10-20T08:09:58.259Z,11.75
2022-10-20T08:11:30.570Z,9.75
2022-10-20T08:13:02.654Z,11.30
2022-10-20T08:14:36.646Z,9.50
2022-10-20T08:16:13.579Z,11.80
2022-10-20T08:17:45.615Z,9.52
2022-10-20T08:19:30.439Z,11.15
2022-10-20T08:21:24.974Z,10.70
2022-10-20T08:22:57.038Z,9.82
2022-10-20T08:24:29.030Z,12.20
2022-10-20T08:26:01.125Z,9.82
2022-10-20T08:27:33.212Z,9.45
2022-10-20T08:29:05.315Z,10.65
2022-10-20T08:30:37.781Z,9.40
2022-10-20T08:32:11.009Z,10.23
2022-10-20T08:33:43.573Z,9.48
2022-10-20T08:35:16.387Z,11.40
2022-10-20T08:36:48.733Z,14.48
2022-10-20T08:38:20.959Z,11.02
2022-10-20T08:39:53.264Z,10.20
2022-10-20T08:41:43.405Z,11.52
2022-10-20T08:43:25.991Z,10.00
2022-10-20T08:45:00.322Z,12.50
2022-10-20T08:46:38.039Z,10.40
2022-10-20T08:48:16.604Z,11.10
2022-10-20T08:49:48.933Z,12.80
2022-10-20T08:51:27.985Z,13.30
2022-10-20T08:53:01.368Z,11.55
2022-10-20T08:56:05.960Z,9.35
2022-10-20T08:57:38.443Z,11.10
2022-10-20T08:59:39.236Z,10.90
2022-10-20T09:01:23.439Z,9.18
2022-10-20T09:02:56.509Z,9.55
2022-10-20T09:04:38.516Z,10.68
2022-10-20T09:06:15.791Z,14.07
2022-10-20T09:07:51.847Z,8.65
2022-10-20T09:09:25.212Z,8.95
2022-10-20T09:12:31.140Z,11.57
2022-10-20T09:14:03.510Z,9.75
2022-10-20T09:15:35.909Z,10.30
2022-10-20T09:17:15.532Z,8.15
2022-10-20T09:18:52.752Z,10.88
2022-10-20T09:20:35.554Z,12.18
2022-10-20T09:22:08.053Z,14.65
2022-10-20T09:23:42.913Z,15.15
2022-10-20T09:25:17.559Z,8.82
2022-10-20T09:26:58.557Z,10.82
2022-10-20T09:28:42.937Z,10.27
2022-10-20T09:30:36.564Z,10.30
2022-10-20T09:34:26.883Z,10.33
2022-10-20T09:36:19.194Z,9.88
2022-10-20T09:38:04.755Z,11.98
2022-10-20T09:39:55.105Z,14.43
2022-10-20T09:41:31.110Z,15.48
2022-10-20T09:43:17.120Z,15.02
2022-10-20T09:44:56.300Z,11.65
2022-10-20T09:46:37.682Z,10.23
2022-10-20T09:48:22.063Z,10.15
2022-10-20T09:50:01.183Z,8.90
2022-10-20T09:51:33.993Z,10.95
2022-10-20T09:53:16.460Z,10.85
2022-10-20T09:54:50.891Z,8.98
2022-10-20T09:56:40.626Z,11.45
2022-10-20T09:58:38.274Z,8.65
2022-10-20T10:00:36.342Z,9.48
2022-10-20T10:02:15.973Z,9.07
2022-10-20T10:03:52.221Z,8.95
2022-10-20T10:05:33.834Z,8.80
2022-10-20T10:07:25.796Z,9.82
2022-10-20T10:09:00.167Z,7.97
2022-10-20T10:10:32.755Z,8.80
2022-10-20T10:12:15.481Z,8.02
2022-10-20T10:13:49.883Z,8.95
2022-10-20T10:15:31.312Z,9.10
2022-10-20T10:17:03.735Z,8.50
2022-10-20T10:18:36.811Z,9.73
2022-10-20T10:20:12.030Z,9.32
2022-10-20T10:21:52.471Z,7.85
2022-10-20T10:23:30.160Z,7.95
2022-10-20T10:25:03.022Z,8.70
2022-10-20T10:26:38.391Z,10.07
2022-10-20T10:28:32.262Z,9.18
2022-10-20T10:30:28.447Z,12.02
2022-10-20T10:32:13.831Z,9.27
2022-10-20T10:33:46.720Z,7.95
2022-10-20T10:35:33.774Z,7.20
2022-10-20T10:37:06.212Z,7.70
2022-10-20T10:38:39.980Z,7.67
2022-10-20T10:40:20.684Z,7.88
2022-10-20T10:42:17.389Z,8.38
2022-10-20T10:44:07.344Z,9.40
2022-10-20T10:45:53.390Z,8.00
2022-10-20T10:47:28.271Z,8.93
2022-10-20T10:49:23.402Z,8.57
2022-10-20T10:50:59.728Z,8.80
2022-10-20T10:52:45.570Z,10.43
2022-10-20T10:54:50.297Z,8.50
2022-10-20T10:56:44.100Z,9.68
2022-10-20T10:58:48.338Z,12.35
2022-10-20T11:00:57.980Z,7.78
2022-10-20T11:02:58.270Z,8.15
2022-10-20T11:04:40.465Z,8.43
2022-10-20T11:06:19.708Z,8.95
2022-10-20T11:08:08.376Z,7.88
2022-10-20T11:10:01.840Z,7.65
2022-10-20T11:12:01.614Z,8.43
2022-10-20T11:14:10.308Z,6.97
2022-10-20T11:16:23.714Z,8.57
2022-10-20T11:18:08.266Z,8.38
2022-10-20T11:19:46.580Z,8.95
2022-10-20T11:21:37.510Z,10.50
2022-10-20T11:23:47.323Z,7.88
2022-10-20T11:25:31.803Z,6.25
2022-10-20T11:27:11.095Z,6.63
2022-10-20T11:28:46.225Z,7.57
2022-10-20T11:30:21.901Z,7.30
2022-10-20T11:32:27.198Z,11.40
2022-10-20T11:34:10.667Z,7.72
2022-10-20T11:35:57.909Z,6.93
2022-10-20T11:37:33.719Z,7.22
2022-10-20T11:39:07.263Z,9.10
2022-10-20T11:40:41.597Z,8.43
2022-10-20T11:42:26.757Z,6.50
2022-10-20T11:44:16.689Z,7.88
2022-10-20T11:47:36.871Z,15.15
2022-10-20T11:49:12.514Z,9.27
2022-10-20T11:50:57.200Z,7.72
2022-10-20T11:53:01.087Z,13.88
2022-10-20T11:54:45.463Z,6.90
2022-10-20T11:56:45.156Z,9.63
2022-10-20T11:58:36.547Z,7.60
2022-10-20T12:00:28.080Z,9.70
2022-10-20T12:02:30.103Z,8.95
2022-10-20T12:04:26.893Z,8.15
2022-10-20T12:06:20.269Z,8.27
2022-10-20T12:08:46.841Z,8.30
2022-10-20T12:11:07.082Z,8.65
2022-10-20T12:13:01.609Z,8.07
2022-10-20T12:14:40.983Z,8.07
2022-10-20T12:16:13.196Z,7.53
2022-10-20T12:17:47.060Z,7.50
2022-10-20T12:19:24.259Z,6.03
2022-10-20T12:21:06.494Z,7.75
2022-10-20T12:22:41.334Z,8.43
2022-10-20T12:24:35.142Z,9.38
2022-10-20T12:26:30.527Z,8.77
2022-10-20T12:28:23.737Z,6.85
2022-10-20T12:30:38.755Z,9.45
2022-10-20T12:32:25.611Z,7.05
2022-10-20T12:34:04.318Z,8.73
2022-10-20T12:36:15.341Z,10.88
2022-10-20T12:37:58.890Z,7.57
2022-10-20T12:39:31.204Z,8.00
2022-10-20T12:41:04.631Z,7.90
2022-10-20T12:42:40.432Z,8.63
2022-10-20T12:44:17.527Z,12.35
2022-10-20T12:45:51.042Z,9.25
2022-10-20T12:47:26.466Z,8.32
2022-10-20T12:49:01.724Z,7.78
2022-10-20T12:50:37.613Z,9.77
2022-10-20T12:52:20.347Z,8.95
2022-10-20T12:54:29.903Z,12.68
2022-10-20T12:56:08.927Z,13.02
2022-10-20T12:57:45.748Z,15.65
2022-10-20T12:59:30.298Z,16.63
2022-10-20T13:01:12.807Z,20.48
2022-10-20T13:02:56.331Z,11.70
2022-10-20T13:04:55.071Z,9.52
2022-10-20T13:06:27.378Z,20.00
2022-10-20T13:08:00.893Z,12.10
2022-10-20T13:10:01.708Z,11.18
2022-10-20T13:11:36.492Z,10.95
2022-10-20T13:13:08.611Z,11.88
2022-10-20T13:14:49.819Z,10.93
2022-10-20T13:16:22.261Z,17.52
2022-10-20T13:18:02.044Z,14.25
2022-10-20T13:20:01.431Z,12.40
2022-10-20T13:21:35.014Z,9.27
2022-10-20T13:23:12.836Z,13.02
2022-10-20T13:24:45.459Z,18.70
2022-10-20T13:26:32.685Z,12.32
2022-10-20T13:28:15.350Z,11.15
2022-10-20T13:29:47.775Z,10.40
2022-10-20T13:31:26.358Z,8.97
2022-10-20T13:33:44.858Z,9.45
2022-10-20T13:35:40.014Z,10.88
2022-10-20T13:37:34.296Z,12.30
2022-10-20T13:42:57.654Z,9.70
2022-10-20T13:44:40.871Z,9.95
2022-10-20T13:46:13.231Z,13.10
2022-10-20T13:48:13.919Z,13.07
2022-10-20T13:50:14.238Z,9.77
2022-10-20T13:51:52.750Z,12.07
2022-10-20T13:53:29.154Z,13.00
2022-10-20T13:55:01.865Z,10.52
2022-10-20T13:56:37.114Z,10.45
2022-10-20T13:58:18.924Z,11.45
2022-10-20T14:00:02.746Z,9.32
2022-10-20T14:01:36.861Z,10.05
2022-10-20T14:03:18.543Z,10.25
2022-10-20T14:05:02.915Z,11.27
2022-10-20T14:06:37.834Z,10.20
2022-10-20T14:08:11.897Z,10.43
2022-10-20T14:09:47.447Z,9.20
2022-10-20T14:11:22.013Z,11.10
2022-10-20T14:12:55.607Z,12.15
2022-10-20T14:14:30.100Z,9.13
2022-10-20T14:16:06.151Z,13.52
2022-10-20T14:17:40.804Z,10.05
2022-10-20T14:19:14.124Z,11.20
2022-10-20T14:21:00.461Z,9.60
2022-10-20T14:22:32.866Z,11.95
2022-10-20T14:24:05.460Z,9.83
2022-10-20T14:25:38.058Z,16.08
2022-10-20T14:27:22.090Z,11.25
2022-10-20T14:28:54.849Z,13.90
2022-10-20T14:30:27.473Z,13.85
2022-10-20T14:32:00.218Z,14.23
2022-10-20T16:50:13.537Z,10.30
2022-10-20T16:51:45.597Z,10.68
2022-10-20T16:53:17.826Z,10.70
2022-10-20T16:54:49.855Z,11.63
2022-10-20T16:56:22.484Z,10.07
2022-10-20T16:57:56.177Z,10.77
2022-10-20T16:59:28.600Z,10.57
2022-10-20T17:01:09.997Z,10.10
2022-10-20T17:02:44.428Z,10.48
2022-10-20T17:04:16.841Z,10.63
2022-10-20T17:05:55.905Z,10.55
2022-10-20T17:07:28.105Z,10.88
2022-10-20T17:09:00.687Z,11.18
2022-10-20T17:10:33.007Z,9.38
2022-10-20T17:12:05.773Z,12.95
2022-10-20T17:13:39.058Z,12.90
2022-10-20T17:15:11.625Z,10.88
2022-10-20T17:16:44.052Z,11.10
2022-10-20T17:18:16.408Z,13.20
2022-10-20T17:19:48.853Z,11.55
2022-10-20T17:21:21.096Z,10.18
2022-10-20T17:22:56.455Z,11.65
2022-10-20T17:24:28.668Z,11.32
2022-10-20T17:26:02.609Z,12.25
2022-10-20T17:27:35.264Z,11.30
2022-10-20T17:29:09.945Z,12.38
2022-10-20T17:30:43.289Z,12.45
2022-10-20T17:32:18.140Z,10.95
2022-10-20T17:33:55.248Z,11.48
2022-10-20T17:35:29.488Z,11.60
2022-10-20T17:37:01.756Z,10.77
2022-10-20T17:38:34.281Z,10.23
2022-10-20T17:40:07.425Z,12.77
2022-10-20T17:41:40.132Z,11.50
2022-10-20T17:43:12.369Z,11.30
2022-10-20T17:44:44.467Z,10.88
2022-10-20T17:46:18.144Z,10.35
2022-10-20T17:47:51.612Z,10.85
2022-10-20T17:51:03.611Z,11.57
2022-10-20T17:52:36.051Z,12.23
2022-10-20T17:54:08.245Z,10.20
2022-10-20T17:55:40.303Z,11.63
2022-10-20T17:57:12.374Z,12.73
2022-10-20T17:58:45.667Z,11.50
2022-10-20T18:00:26.868Z,11.60
2022-10-20T18:02:10.566Z,10.65
2022-10-20T18:03:43.150Z,11.88
2022-10-20T18:05:15.789Z,12.67
2022-10-20T18:06:48.330Z,10.75
2022-10-20T18:08:20.368Z,11.87
2022-10-20T18:09:52.485Z,13.10
2022-10-20T18:11:27.322Z,11.63
2022-10-20T18:12:59.589Z,11.40
2022-10-20T18:14:31.605Z,10.25
2022-10-20T18:16:08.371Z,11.05
2022-10-20T18:17:40.692Z,10.30
2022-10-20T18:19:18.892Z,11.27
2022-10-20T18:20:55.995Z,10.90
2022-10-20T18:22:28.092Z,10.48
2022-10-20T18:24:03.866Z,9.85
2022-10-20T18:25:36.333Z,10.77
2022-10-20T18:27:08.663Z,11.82
2022-10-20T18:28:43.194Z,11.35
2022-10-20T18:30:17.961Z,14.00
2022-10-20T18:31:51.619Z,15.32
2022-10-20T18:33:23.612Z,25.35
2022-10-20T18:34:55.686Z,21.63
2022-10-20T18:36:28.253Z,15.43
2022-10-20T18:38:00.300Z,18.00
2022-10-20T18:39:32.438Z,16.27
2022-10-20T18:41:09.488Z,13.15
2022-10-20T18:42:41.482Z,14.77
2022-10-20T18:44:18.598Z,13.13
2022-10-20T18:45:52.040Z,13.80
2022-10-20T18:47:24.125Z,12.65
2022-10-20T18:48:56.765Z,13.93
2022-10-20T18:50:28.945Z,13.52
2022-10-20T18:52:01.031Z,13.85
2022-10-20T18:53:34.631Z,27.08
2022-10-20T18:55:08.553Z,27.02
2022-10-20T18:56:41.248Z,17.40
2022-10-20T18:58:13.264Z,17.40
2022-10-20T18:59:45.465Z,16.02
2022-10-20T19:01:20.206Z,15.73
2022-10-20T19:02:55.763Z,25.20
2022-10-20T19:04:29.997Z,19.50
2022-10-20T19:06:10.450Z,20.05
2022-10-20T19:07:42.815Z,20.23
2022-10-20T19:09:17.939Z,20.27
2022-10-20T19:10:50.038Z,23.45
2022-10-20T19:12:22.184Z,21.02
2022-10-20T19:13:54.893Z,18.45
2022-10-20T19:15:27.249Z,19.60
2022-10-20T19:16:59.650Z,20.73
2022-10-20T19:18:31.933Z,21.73
2022-10-20T19:20:05.051Z,17.25
2022-10-20T19:21:37.695Z,17.23
2022-10-20T19:23:09.949Z,19.92
2022-10-20T19:24:42.192Z,27.40
2022-10-20T19:26:21.060Z,25.80
2022-10-20T19:27:53.173Z,19.27
2022-10-20T19:29:25.283Z,17.35
2022-10-20T19:30:57.775Z,18.05
2022-10-20T19:32:29.833Z,18.27
2022-10-20T19:34:09.741Z,19.80
2022-10-20T19:35:41.996Z,20.05
2022-10-20T19:37:14.273Z,23.13
2022-10-20T19:38:47.137Z,25.50
2022-10-20T19:40:19.270Z,24.80
2022-10-20T19:41:51.861Z,25.27
2022-10-20T19:43:24.150Z,23.57
2022-10-20T19:44:56.155Z,23.60
2022-10-20T19:46:28.395Z,22.55
2022-10-20T19:49:38.024Z,24.27
2022-10-20T19:51:10.426Z,29.02
2022-10-20T19:52:42.566Z,25.55
2022-10-20T19:54:15.203Z,26.40
2022-10-20T19:55:50.832Z,22.38
2022-10-20T19:57:22.866Z,28.40
2022-10-20T19:58:55.040Z,23.73
2022-10-20T20:00:27.192Z,24.38
2022-10-20T20:01:59.431Z,23.65
2022-10-20T20:03:31.777Z,23.95
2022-10-20T20:05:06.867Z,24.58
2022-10-20T20:06:39.050Z,25.17
2022-10-20T20:08:11.390Z,24.98
2022-10-20T20:09:44.671Z,26.15
2022-10-20T20:11:26.638Z,25.40
2022-10-20T20:12:58.755Z,24.05
2022-10-20T20:14:30.834Z,21.65
2022-10-20T20:16:07.554Z,20.90
2022-10-20T20:17:39.842Z,21.77
2022-10-20T20:19:12.988Z,26.73
2022-10-20T20:20:46.657Z,18.33
2022-10-20T20:22:18.691Z,20.85
2022-10-20T20:24:01.882Z,20.48
2022-10-20T20:25:42.078Z,17.55
2022-10-20T20:27:14.279Z,17.02
2022-10-20T20:28:46.296Z,17.63
2022-10-20T20:30:18.363Z,19.38
2022-10-20T20:31:50.575Z,23.27
2022-10-20T20:33:22.551Z,18.85
2022-10-20T20:34:54.638Z,19.50
2022-10-20T20:36:27.565Z,19.48
2022-10-20T20:37:59.929Z,19.23
2022-10-20T20:39:31.920Z,15.85
2022-10-20T20:41:06.679Z,14.93
2022-10-20T20:42:38.650Z,15.88
2022-10-20T20:44:10.937Z,16.23
2022-10-20T20:45:44.382Z,15.70
2022-10-20T20:47:16.612Z,18.23
2022-10-20T20:48:49.520Z,13.57
2022-10-20T20:50:21.654Z,16.17
2022-10-20T20:51:53.747Z,12.35
2022-10-20T20:53:25.835Z,15.00
2022-10-20T20:54:57.871Z,15.15
2022-10-20T20:56:30.409Z,15.75
2022-10-20T20:58:02.410Z,14.50
2022-10-20T20:59:34.486Z,14.30
2022-10-20T21:01:12.036Z,25.15
2022-10-20T21:02:45.087Z,13.63
2022-10-20T21:04:17.748Z,17.58
2022-10-20T21:05:55.764Z,14.25
2022-10-20T21:07:27.808Z,14.80
2022-10-20T21:08:59.915Z,15.30
2022-10-20T21:10:32.020Z,16.10
2022-10-20T21:12:04.648Z,13.70
2022-10-20T21:13:37.781Z,16.38
2022-10-20T21:15:10.457Z,15.80
2022-10-20T21:18:16.369Z,14.77
2022-10-20T21:19:48.349Z,15.43
2022-10-20T21:21:32.129Z,14.23
2022-10-20T21:23:04.246Z,14.25
2022-10-20T21:24:37.360Z,13.02
2022-10-20T21:26:11.259Z,13.32
2022-10-20T21:27:43.265Z,14.15
2022-10-20T21:29:15.337Z,14.63
2022-10-20T21:30:47.321Z,13.52
2022-10-20T21:32:20.721Z,14.45
2022-10-20T21:33:54.352Z,15.13
2022-10-20T21:35:26.564Z,17.95
2022-10-20T21:36:58.542Z,14.00
2022-10-20T21:38:32.003Z,13.25
2022-10-20T21:41:36.645Z,15.20
2022-10-20T21:43:11.582Z,15.02
2022-10-20T21:44:43.651Z,15.35
2022-10-20T21:46:18.655Z,13.48
2022-10-20T21:47:55.115Z,15.60
2022-10-20T21:49:27.184Z,14.43
2022-10-20T21:51:02.100Z,14.95
2022-10-20T21:54:12.598Z,14.15
2022-10-20T21:55:44.689Z,16.02
2022-10-20T21:57:16.767Z,16.05
2022-10-20T21:58:48.776Z,14.90
2022-10-20T22:00:23.279Z,14.40
2022-10-20T22:02:00.883Z,15.55
2022-10-20T22:05:05.057Z,14.52
2022-10-20T22:06:37.908Z,13.77
2022-10-20T22:08:09.858Z,14.63
2022-10-20T22:09:41.826Z,13.13
2022-10-20T22:11:19.262Z,16.58
2022-10-20T22:12:51.250Z,14.60
2022-10-20T22:14:24.057Z,14.73
2022-10-20T22:15:56.051Z,15.15
2022-10-20T22:17:28.027Z,14.52
2022-10-20T22:19:02.872Z,15.73
2022-10-20T22:20:38.066Z,14.18
2022-10-20T22:23:43.957Z,14.05
2022-10-20T22:25:16.114Z,13.07
2022-10-20T22:26:51.728Z,14.18
2022-10-20T22:28:23.803Z,14.73
2022-10-20T22:29:57.965Z,13.20
2022-10-20T22:31:30.081Z,16.67
2022-10-20T22:33:02.459Z,14.85
2022-10-20T22:34:34.542Z,13.65
2022-10-20T22:36:06.763Z,15.20
2022-10-20T22:37:38.817Z,15.20
2022-10-20T22:39:14.229Z,12.80
2022-10-20T22:40:46.281Z,12.57
2022-10-20T22:42:20.156Z,12.93
2022-10-20T22:43:54.605Z,13.85
2022-10-20T22:45:26.829Z,14.02
2022-10-20T22:46:58.836Z,15.20
2022-10-20T22:48:30.842Z,13.27
2022-10-20T22:50:02.913Z,13.00
2022-10-20T22:51:35.026Z,13.10
2022-10-20T22:53:07.077Z,13.32
2022-10-20T22:54:39.055Z,14.32
2022-10-20T22:56:14.589Z,14.60
2022-10-20T22:57:53.010Z,15.18
2022-10-20T22:59:28.131Z,12.98
2022-10-20T23:01:00.215Z,15.10
2022-10-20T23:02:33.156Z,14.88
2022-10-20T23:04:05.412Z,13.05
2022-10-20T23:05:37.790Z,15.90
2022-10-20T23:07:09.835Z,14.35
2022-10-20T23:08:46.945Z,14.55
2022-10-20T23:10:18.966Z,15.90
2022-10-20T23:11:50.947Z,12.30
2022-10-20T23:13:22.937Z,12.60
2022-10-20T23:14:54.924Z,12.10
2022-10-20T23:16:27.045Z,12.88
2022-10-20T23:17:58.969Z,14.23
2022-10-20T23:19:31.207Z,13.52
2022-10-20T23:21:03.354Z,12.75
2022-10-20T23:22:35.387Z,12.48
2022-10-20T23:24:07.314Z,13.20
2022-10-20T23:25:43.327Z,13.57
2022-10-20T23:27:15.400Z,13.98
2022-10-20T23:28:48.944Z,12.90
2022-10-20T23:31:52.734Z,12.25
2022-10-20T23:33:24.712Z,11.73
2022-10-20T23:34:56.685Z,14.20
2022-10-20T23:36:28.859Z,12.07
2022-10-20T23:38:00.842Z,12.20
2022-10-20T23:39:32.810Z,11.88
2022-10-20T23:41:05.428Z,11.93